Time;durP1;ratioP1;P1;durP2;ratioP2;P2;SDS_P1;SDS_P2;PMS_P1;PMS_P2;Temp;Humidity;BMP_temperature;BMP_pressure;BME280_temperature;BME280_humidity;BME280_pressure;Samples;Min_cycle;Max_cycle;Signal;HPM_P1;HPM_P2
2023/06/16 00:00:59;;;;;;;12.27;7.18;;;16.60;99.90;;;;;;5073174;28;20040;-64
2023/06/16 00:04:04;;;;;;;10.43;6.82;;;16.50;99.90;;;;;;5072812;28;20043;-63
2023/06/16 00:07:09;;;;;;;13.57;7.78;;;16.70;99.90;;;;;;5073086;28;20055;-62
2023/06/16 00:10:13;;;;;;;13.70;7.68;;;16.60;99.90;;;;;;5072951;28;20048;-63
2023/06/16 00:13:17;;;;;;;15.40;8.43;;;16.60;99.90;;;;;;5072675;28;20529;-63
2023/06/16 00:16:23;;;;;;;12.60;7.78;;;16.60;99.90;;;;;;5072595;28;20054;-58
2023/06/16 00:19:29;;;;;;;10.25;7.78;;;16.60;99.90;;;;;;5072707;28;20047;-64
2023/06/16 00:22:34;;;;;;;14.05;8.70;;;16.50;99.90;;;;;;5072587;28;20052;-64
2023/06/16 00:25:38;;;;;;;13.95;7.82;;;16.40;99.90;;;;;;5072876;28;20051;-64
2023/06/16 00:28:42;;;;;;;12.65;7.68;;;16.30;99.90;;;;;;5072815;28;20051;-63
2023/06/16 00:31:46;;;;;;;13.50;8.40;;;16.30;99.90;;;;;;5072504;28;20416;-58
2023/06/16 00:34:50;;;;;;;17.33;7.90;;;16.20;99.90;;;;;;5071612;28;20048;-63
2023/06/16 00:37:54;;;;;;;12.90;8.35;;;16.10;99.90;;;;;;5072848;28;20051;-63
2023/06/16 00:41:00;;;;;;;11.07;7.85;;;16.20;99.90;;;;;;5072808;28;20522;-63
2023/06/16 00:44:04;;;;;;;10.82;7.80;;;16.10;99.90;;;;;;5072600;28;20254;-63
2023/06/16 00:47:09;;;;;;;13.68;7.95;;;16.00;99.90;;;;;;5072407;28;20055;-58
2023/06/16 00:50:13;;;;;;;13.10;8.10;;;16.00;99.90;;;;;;5072190;28;20055;-63
2023/06/16 00:53:17;;;;;;;11.18;7.55;;;16.10;99.90;;;;;;5071762;28;20051;-62
2023/06/16 00:56:22;;;;;;;12.07;7.75;;;16.10;99.90;;;;;;5072412;28;20458;-62
2023/06/16 00:59:27;;;;;;;10.05;7.22;;;16.30;99.90;;;;;;5072288;28;20035;-63
2023/06/16 01:02:32;;;;;;;14.32;8.50;;;16.40;99.90;;;;;;5071256;28;20411;-58
2023/06/16 01:05:36;;;;;;;13.15;9.55;;;16.60;99.90;;;;;;5072278;28;20047;-62
2023/06/16 01:08:50;;;;;;;14.43;9.38;;;16.50;99.90;;;;;;5071850;28;20043;-64
2023/06/16 01:12:09;;;;;;;13.18;8.73;;;16.50;99.90;;;;;;5070923;28;20051;-62
2023/06/16 01:15:18;;;;;;;13.27;9.43;;;16.50;99.90;;;;;;5071560;28;20043;-63
2023/06/16 01:18:24;;;;;;;13.85;9.80;;;16.40;99.90;;;;;;5072131;28;20063;-59
2023/06/16 01:21:37;;;;;;;11.35;8.35;;;16.10;99.90;;;;;;5070173;28;20398;-63
2023/06/16 01:24:43;;;;;;;20.27;9.25;;;16.00;99.90;;;;;;5071639;28;20509;-63
2023/06/16 01:27:47;;;;;;;13.00;8.85;;;16.00;99.90;;;;;;5070820;28;20044;-64
2023/06/16 01:30:52;;;;;;;11.88;9.27;;;15.90;99.90;;;;;;5070394;28;20059;-59
2023/06/16 01:33:57;;;;;;;14.30;9.85;;;15.90;99.90;;;;;;5071164;28;20051;-61
2023/06/16 01:37:03;;;;;;;14.40;10.27;;;15.80;99.90;;;;;;5070372;28;20166;-63
2023/06/16 01:40:08;;;;;;;13.85;10.73;;;15.70;99.90;;;;;;5071199;28;20056;-63
2023/06/16 01:43:12;;;;;;;12.70;9.60;;;15.60;99.90;;;;;;5070883;28;20043;-63
2023/06/16 01:46:17;;;;;;;13.23;9.55;;;15.60;99.90;;;;;;5069983;28;20044;-59
2023/06/16 01:49:21;;;;;;;12.65;9.85;;;15.50;99.90;;;;;;5071078;28;20513;-61
2023/06/16 01:52:25;;;;;;;14.45;9.65;;;15.50;99.90;;;;;;5070715;28;20051;-64
2023/06/16 01:55:29;;;;;;;13.75;10.07;;;15.50;99.90;;;;;;5069821;28;20040;-64
2023/06/16 01:58:33;;;;;;;16.15;9.52;;;15.40;99.90;;;;;;5070845;28;20047;-63
2023/06/16 02:01:47;;;;;;;12.95;8.93;;;15.40;99.90;;;;;;5070330;28;20051;-58
2023/06/16 02:04:52;;;;;;;15.23;10.00;;;15.40;99.90;;;;;;5069947;28;20629;-63
2023/06/16 02:08:00;;;;;;;12.52;8.90;;;15.40;99.90;;;;;;5069840;28;20040;-63
2023/06/16 02:11:04;;;;;;;11.35;8.93;;;15.40;99.90;;;;;;5069349;28;20098;-63
2023/06/16 02:14:08;;;;;;;10.10;7.80;;;15.30;99.90;;;;;;5070357;28;20040;-62
2023/06/16 02:17:12;;;;;;;12.57;7.78;;;15.30;99.90;;;;;;5070176;28;20051;-60
2023/06/16 02:20:17;;;;;;;11.48;7.25;;;15.30;99.90;;;;;;5070520;28;20043;-58
2023/06/16 02:23:22;;;;;;;9.02;6.07;;;15.30;99.90;;;;;;5069283;28;20047;-62
2023/06/16 02:26:27;;;;;;;9.50;6.93;;;15.30;99.90;;;;;;5070068;28;20044;-62
2023/06/16 02:29:31;;;;;;;8.93;7.43;;;15.30;99.90;;;;;;5069582;28;20044;-64
2023/06/16 02:32:36;;;;;;;9.63;6.78;;;15.30;99.90;;;;;;5069947;28;20051;-64
2023/06/16 02:35:40;;;;;;;10.52;6.93;;;15.20;99.90;;;;;;5069255;28;20051;-63
2023/06/16 02:38:45;;;;;;;9.57;7.70;;;15.20;99.90;;;;;;5069786;28;20068;-62
2023/06/16 02:41:50;;;;;;;14.43;8.30;;;15.10;99.90;;;;;;5069009;28;20399;-63
2023/06/16 02:44:56;;;;;;;12.98;8.27;;;15.10;99.90;;;;;;5069688;28;20510;-62
2023/06/16 02:48:00;;;;;;;12.00;7.90;;;15.10;99.90;;;;;;5069476;28;20056;-59
2023/06/16 02:51:04;;;;;;;11.98;9.13;;;15.00;99.90;;;;;;5070429;28;20051;-63
2023/06/16 02:54:09;;;;;;;16.15;8.90;;;15.10;99.90;;;;;;5069491;28;20055;-63
2023/06/16 02:57:12;;;;;;;11.65;7.97;;;15.10;99.90;;;;;;5070053;28;20051;-63
2023/06/16 03:00:23;;;;;;;12.35;8.35;;;15.00;99.90;;;;;;5069396;28;20510;-63
2023/06/16 03:03:48;;;;;;;15.35;7.93;;;15.00;99.90;;;;;;5070801;28;20067;-63
2023/06/16 03:07:10;;;;;;;10.10;7.05;;;14.90;99.90;;;;;;5068642;28;20072;-62
2023/06/16 03:10:20;;;;;;;11.57;7.63;;;14.80;99.90;;;;;;5069104;28;20305;-63
2023/06/16 03:13:42;;;;;;;13.82;8.38;;;14.70;99.90;;;;;;5068780;28;20518;-59
2023/06/16 03:16:50;;;;;;;10.25;7.22;;;14.70;99.90;;;;;;5068551;28;20502;-62
2023/06/16 03:19:55;;;;;;;12.30;7.95;;;14.60;99.90;;;;;;5069061;28;20055;-63
2023/06/16 03:23:28;;;;;;;9.63;7.85;;;14.50;99.90;;;;;;5068552;28;20039;-63
2023/06/16 03:26:34;;;;;;;13.00;7.32;;;14.50;99.90;;;;;;5070132;28;20055;-58
2023/06/16 03:30:05;;;;;;;10.88;7.57;;;14.50;99.90;;;;;;5073674;28;20056;-63
2023/06/16 03:33:26;;;;;;;13.13;7.03;;;14.30;99.90;;;;;;5072651;28;20048;-64
2023/06/16 03:36:36;;;;;;;9.55;7.28;;;14.30;99.90;;;;;;5072897;28;20450;-63
2023/06/16 03:39:41;;;;;;;12.95;7.70;;;14.30;99.90;;;;;;5073156;28;20044;-58
2023/06/16 03:42:45;;;;;;;10.75;6.95;;;14.30;99.90;;;;;;5072612;28;20048;-64
2023/06/16 03:45:50;;;;;;;14.30;7.93;;;14.40;99.90;;;;;;5072966;28;20048;-63
2023/06/16 03:48:55;;;;;;;11.95;7.18;;;14.50;99.90;;;;;;5073418;28;20063;-64
2023/06/16 03:51:59;;;;;;;15.07;8.23;;;14.60;99.90;;;;;;5072360;28;20052;-63
2023/06/16 03:55:05;;;;;;;9.95;7.35;;;14.70;99.90;;;;;;5072879;28;20059;-59
2023/06/16 03:58:11;;;;;;;12.10;7.70;;;14.60;99.90;;;;;;5072375;28;20045;-64
2023/06/16 04:01:15;;;;;;;12.80;8.55;;;14.50;99.90;;;;;;5072502;28;20051;-63
2023/06/16 04:04:19;;;;;;;11.15;8.20;;;14.60;99.90;;;;;;5072593;28;20048;-63
2023/06/16 04:07:25;;;;;;;11.23;8.00;;;14.50;99.90;;;;;;5072261;28;20406;-62
2023/06/16 04:10:30;;;;;;;10.73;7.75;;;14.50;99.90;;;;;;5072253;28;20415;-60
2023/06/16 04:13:33;;;;;;;11.15;8.50;;;14.60;99.90;;;;;;5071667;28;20052;-62
2023/06/16 04:16:43;;;;;;;12.60;8.50;;;14.70;99.90;;;;;;5072082;28;20039;-63
2023/06/16 04:19:48;;;;;;;13.32;8.23;;;14.90;99.90;;;;;;5072030;28;20051;-62
2023/06/16 04:22:53;;;;;;;14.90;8.02;;;14.90;99.90;;;;;;5072447;28;20035;-62
2023/06/16 04:25:57;;;;;;;9.45;7.65;;;15.10;99.90;;;;;;5071939;28;20065;-59
2023/06/16 04:29:03;;;;;;;10.07;6.65;;;15.50;99.90;;;;;;5071425;28;20040;-62
2023/06/16 04:32:13;;;;;;;40.60;8.55;;;16.20;99.90;;;;;;5071276;28;20059;-63
2023/06/16 04:35:21;;;;;;;14.13;7.55;;;16.60;99.90;;;;;;5071716;28;20047;-62
2023/06/16 04:38:25;;;;;;;10.90;7.50;;;16.90;99.90;;;;;;5070623;28;20055;-60
2023/06/16 04:41:35;;;;;;;9.32;7.40;;;17.60;99.90;;;;;;5071176;28;20047;-61
2023/06/16 04:44:41;;;;;;;9.38;7.07;;;18.30;99.90;;;;;;5071406;28;20182;-64
2023/06/16 04:47:50;;;;;;;9.45;6.90;;;17.60;99.90;;;;;;5071215;28;20052;-64
2023/06/16 04:50:57;;;;;;;11.70;7.47;;;17.30;99.90;;;;;;5071406;28;20040;-63
2023/06/16 04:54:01;;;;;;;12.27;7.50;;;16.90;99.90;;;;;;5071098;28;20039;-60
2023/06/16 04:57:05;;;;;;;9.73;7.70;;;16.10;99.90;;;;;;5071491;28;20052;-61
2023/06/16 05:00:10;;;;;;;11.23;7.75;;;16.10;99.90;;;;;;5071769;28;20052;-64
2023/06/16 05:03:14;;;;;;;12.05;7.57;;;16.10;99.90;;;;;;5071129;28;20414;-63
2023/06/16 05:06:18;;;;;;;10.00;7.13;;;16.30;99.90;;;;;;5072144;28;20509;-63
2023/06/16 05:09:22;;;;;;;10.45;7.13;;;16.30;99.90;;;;;;5071206;28;20059;-59
2023/06/16 05:12:27;;;;;;;10.30;7.43;;;17.80;99.90;;;;;;5071144;28;20050;-64
2023/06/16 05:15:32;;;;;;;13.38;6.18;;;17.90;99.90;;;;;;5070988;28;20055;-63
2023/06/16 05:18:37;;;;;;;10.98;6.43;;;20.40;99.90;;;;;;5070731;28;20493;-64
2023/06/16 05:21:42;;;;;;;10.68;5.00;;;22.20;99.90;;;;;;5071491;28;20040;-64
2023/06/16 05:24:46;;;;;;;8.00;5.13;;;22.50;99.90;;;;;;5070587;28;20063;-64
2023/06/16 05:27:50;;;;;;;9.27;5.43;;;24.40;99.90;;;;;;5070627;28;20044;-64
2023/06/16 05:30:55;;;;;;;7.47;5.32;;;24.40;99.90;;;;;;5070316;28;20051;-64
2023/06/16 05:33:59;;;;;;;6.80;4.78;;;23.80;99.90;;;;;;5070332;28;20052;-63
2023/06/16 05:37:04;;;;;;;7.93;4.80;;;22.80;99.90;;;;;;5070545;28;20040;-63
2023/06/16 05:40:09;;;;;;;8.35;5.13;;;24.80;99.90;;;;;;5056259;28;20048;-59
2023/06/16 05:43:15;;;;;;;21.13;7.15;;;25.10;99.90;;;;;;5056837;28;20052;-64
2023/06/16 05:46:19;;;;;;;17.38;6.88;;;23.70;99.90;;;;;;5057279;28;20063;-64
2023/06/16 05:49:23;;;;;;;9.13;4.85;;;23.20;99.90;;;;;;5064585;28;20048;-64
2023/06/16 05:52:29;;;;;;;38.42;11.45;;;23.10;99.90;;;;;;5063218;28;20719;-62
2023/06/16 05:55:33;;;;;;;9.43;5.55;;;22.50;99.90;;;;;;5055197;28;20639;-59
2023/06/16 05:58:37;;;;;;;9.57;5.38;;;22.00;99.90;;;;;;5062641;28;20187;-64
2023/06/16 06:01:42;;;;;;;12.30;5.45;;;21.90;99.90;;;;;;5060573;28;20040;-64
2023/06/16 06:04:46;;;;;;;20.35;7.43;;;23.40;99.90;;;;;;5056524;28;20055;-64
2023/06/16 06:07:50;;;;;;;13.48;5.00;;;25.00;99.90;;;;;;5063533;28;20059;-65
2023/06/16 06:10:55;;;;;;;10.50;4.70;;;26.20;99.90;;;;;;5059341;28;20067;-61
2023/06/16 06:14:00;;;;;;;11.73;5.88;;;27.00;99.90;;;;;;5066581;28;20047;-64
2023/06/16 06:17:05;;;;;;;6.97;5.13;;;26.10;99.90;;;;;;5064938;28;20032;-63
2023/06/16 06:20:10;;;;;;;11.25;6.20;;;24.50;99.90;;;;;;5065237;28;20024;-63
2023/06/16 06:23:14;;;;;;;19.88;7.30;;;23.30;99.90;;;;;;5061386;28;20051;-64
2023/06/16 06:26:19;;;;;;;9.23;5.68;;;22.80;99.90;;;;;;5060754;28;20031;-59
2023/06/16 06:29:23;;;;;;;6.40;4.50;;;23.70;99.90;;;;;;5058748;28;20040;-58
2023/06/16 06:32:28;;;;;;;5.45;4.28;;;25.00;99.90;;;;;;5055806;28;20043;-63
2023/06/16 06:35:32;;;;;;;6.10;4.38;;;26.50;99.90;;;;;;5056715;28;20407;-63
2023/06/16 06:38:38;;;;;;;8.93;4.68;;;27.70;99.90;;;;;;5060457;28;20406;-60
2023/06/16 06:41:42;;;;;;;9.05;4.72;;;28.40;99.90;;;;;;5052179;28;20545;-61
2023/06/16 06:44:54;;;;;;;5.10;4.18;;;28.80;99.90;;;;;;5054176;28;20035;-64
2023/06/16 06:47:58;;;;;;;9.10;4.30;;;28.00;99.90;;;;;;5065546;28;20454;-64
2023/06/16 06:51:02;;;;;;;6.30;4.00;;;26.60;99.90;;;;;;5055476;28;20037;-63
2023/06/16 06:54:07;;;;;;;8.32;4.53;;;27.00;99.90;;;;;;5060257;28;20059;-62
2023/06/16 06:57:12;;;;;;;11.30;4.30;;;24.60;99.90;;;;;;5066646;28;20040;-59
2023/06/16 07:00:17;;;;;;;6.90;4.57;;;26.30;99.90;;;;;;5062888;28;20063;-64
2023/06/16 07:03:21;;;;;;;6.35;4.10;;;27.50;99.90;;;;;;5057770;28;20517;-64
2023/06/16 07:06:25;;;;;;;8.02;4.55;;;28.60;99.90;;;;;;5057635;28;20067;-64
2023/06/16 07:09:28;;;;;;;7.30;4.53;;;29.20;99.40;;;;;;5059059;28;20033;-63
2023/06/16 07:12:34;;;;;;;5.88;4.05;;;29.70;99.10;;;;;;5057411;28;20059;-64
2023/06/16 07:15:38;;;;;;;8.82;4.47;;;30.40;98.60;;;;;;5052814;28;20037;-61
2023/06/16 07:18:42;;;;;;;5.35;3.55;;;30.20;98.70;;;;;;5066610;28;20039;-64
2023/06/16 07:21:46;;;;;;;5.80;4.15;;;29.20;99.30;;;;;;5054140;28;20064;-64
2023/06/16 07:24:50;;;;;;;7.78;3.85;;;29.70;98.30;;;;;;5062868;28;20041;-64
2023/06/16 07:27:55;;;;;;;7.43;4.38;;;30.40;97.60;;;;;;5062509;28;20256;-64
2023/06/16 07:30:59;;;;;;;7.05;4.13;;;29.60;97.60;;;;;;5064573;28;20522;-64
2023/06/16 07:34:03;;;;;;;6.75;4.10;;;30.30;98.10;;;;;;5058078;28;20047;-64
2023/06/16 07:37:08;;;;;;;8.23;5.40;;;31.40;97.50;;;;;;5060540;28;20033;-65
2023/06/16 07:40:13;;;;;;;6.40;4.53;;;31.60;96.90;;;;;;5069705;28;20035;-65
2023/06/16 07:43:17;;;;;;;5.65;4.78;;;32.20;96.50;;;;;;5069864;28;20450;-61
2023/06/16 07:46:21;;;;;;;8.77;5.00;;;33.50;95.30;;;;;;5064760;28;20040;-63
2023/06/16 07:49:26;;;;;;;9.65;5.35;;;33.40;95.50;;;;;;5062349;28;20044;-63
2023/06/16 07:52:30;;;;;;;8.75;4.75;;;34.30;94.90;;;;;;5062907;28;20040;-65
2023/06/16 07:55:34;;;;;;;5.95;4.90;;;35.40;93.80;;;;;;5050762;28;20041;-63
2023/06/16 07:58:38;;;;;;;4.97;3.90;;;36.30;93.60;;;;;;5054313;28;20044;-62
2023/06/16 08:01:44;;;;;;;6.93;4.50;;;36.90;92.70;;;;;;5057951;28;20040;-63
2023/06/16 08:04:48;;;;;;;7.20;3.97;;;37.00;91.60;;;;;;5045507;28;20406;-63
2023/06/16 08:07:52;;;;;;;6.82;4.32;;;36.80;91.70;;;;;;5062364;28;20045;-63
2023/06/16 08:10:57;;;;;;;8.85;4.55;;;36.90;91.70;;;;;;5063540;28;20059;-65
2023/06/16 08:14:02;;;;;;;5.20;3.67;;;37.50;91.10;;;;;;5063486;28;20047;-62
2023/06/16 08:17:06;;;;;;;20.17;4.50;;;38.30;90.40;;;;;;5066598;28;20392;-63
2023/06/16 08:20:11;;;;;;;5.97;3.50;;;38.60;90.70;;;;;;5064420;28;20040;-61
2023/06/16 08:23:15;;;;;;;7.63;3.80;;;39.20;89.90;;;;;;5063542;28;20048;-64
2023/06/16 08:26:20;;;;;;;7.75;4.10;;;39.40;88.50;;;;;;5073010;28;20033;-64
2023/06/16 08:29:25;;;;;;;7.93;4.18;;;38.00;88.00;;;;;;5068662;28;20040;-64
2023/06/16 08:32:29;;;;;;;5.18;4.00;;;37.10;90.00;;;;;;5062976;28;20037;-63
2023/06/16 08:35:33;;;;;;;9.57;5.88;;;38.10;88.30;;;;;;5061128;28;20491;-64
2023/06/16 08:38:37;;;;;;;7.00;3.95;;;36.70;90.20;;;;;;5070743;28;20501;-64
2023/06/16 08:41:41;;;;;;;6.13;3.88;;;37.50;89.20;;;;;;5070771;28;20029;-64
2023/06/16 08:44:46;;;;;;;5.75;4.13;;;37.30;89.20;;;;;;5063648;28;20044;-64
2023/06/16 08:47:50;;;;;;;5.57;3.47;;;38.70;88.20;;;;;;5063954;28;20049;-64
2023/06/16 08:50:58;;;;;;;4.85;3.67;;;39.60;86.90;;;;;;5065458;28;20044;-61
2023/06/16 08:54:08;;;;;;;4.07;3.67;;;39.50;86.60;;;;;;5065116;28;20035;-64
2023/06/16 08:57:12;;;;;;;;;;;40.30;85.90;;;;;;5059097;28;20043;-64
2023/06/16 09:00:17;;;;;;;8.65;4.00;;;40.60;83.30;;;;;;5066963;28;20286;-65
2023/06/16 09:03:22;;;;;;;6.00;4.10;;;41.20;83.60;;;;;;5062867;28;20036;-59
2023/06/16 09:06:25;;;;;;;7.72;3.60;;;41.50;80.60;;;;;;5060138;28;20040;-64
2023/06/16 09:09:29;;;;;;;3.92;3.13;;;40.50;78.90;;;;;;5057426;28;20044;-64
2023/06/16 09:12:35;;;;;;;5.65;3.28;;;40.90;77.80;;;;;;5057381;28;20033;-65
2023/06/16 09:15:42;;;;;;;4.15;3.50;;;40.40;76.60;;;;;;5063014;28;20043;-64
2023/06/16 09:18:47;;;;;;;7.05;3.40;;;38.00;75.70;;;;;;5057274;28;20044;-64
2023/06/16 09:21:55;;;;;;;4.03;3.60;;;37.60;81.70;;;;;;5062070;28;20040;-62
2023/06/16 09:25:00;;;;;;;6.43;2.83;;;39.50;79.70;;;;;;5056180;28;20044;-65
2023/06/16 09:28:09;;;;;;;5.45;2.95;;;41.10;75.40;;;;;;5059497;28;20054;-65
2023/06/16 09:31:15;;;;;;;4.75;3.03;;;39.00;73.40;;;;;;5055906;28;20052;-64
2023/06/16 09:34:19;;;;;;;6.65;3.13;;;38.70;76.60;;;;;;5065428;28;20048;-63
2023/06/16 09:37:24;;;;;;;4.93;2.95;;;40.70;74.50;;;;;;5066731;28;20040;-64
2023/06/16 09:40:30;;;;;;;4.47;3.00;;;42.70;74.90;;;;;;5059753;28;20045;-65
2023/06/16 09:43:38;;;;;;;5.03;3.00;;;43.80;70.90;;;;;;5055886;28;20376;-65
2023/06/16 09:46:43;;;;;;;7.07;2.90;;;44.50;70.40;;;;;;5056810;28;20047;-65
2023/06/16 09:49:52;;;;;;;4.03;2.80;;;45.40;67.20;;;;;;5057126;28;20051;-61
2023/06/16 09:52:57;;;;;;;3.50;2.53;;;45.60;67.60;;;;;;5053773;28;20043;-64
2023/06/16 09:56:01;;;;;;;4.10;2.50;;;45.80;66.20;;;;;;5067418;28;20052;-65
2023/06/16 09:59:05;;;;;;;3.40;2.63;;;46.90;65.30;;;;;;5063410;28;20052;-65
2023/06/16 10:02:09;;;;;;;6.00;2.80;;;46.80;63.90;;;;;;5059822;28;20032;-64
2023/06/16 10:05:16;;;;;;;2.78;2.38;;;46.80;64.70;;;;;;5065664;28;20048;-63
2023/06/16 10:08:21;;;;;;;2.80;2.15;;;47.00;63.50;;;;;;5059982;28;20040;-64
2023/06/16 10:11:28;;;;;;;4.97;2.60;;;44.40;59.60;;;;;;5061240;28;20041;-65
2023/06/16 10:14:35;;;;;;;3.75;2.28;;;44.30;61.10;;;;;;5064278;28;20487;-65
2023/06/16 10:17:41;;;;;;;6.10;2.65;;;43.90;61.30;;;;;;5056916;28;20032;-64
2023/06/16 10:20:46;;;;;;;2.78;2.00;;;43.80;63.80;;;;;;5066413;28;20074;-65
2023/06/16 10:23:51;;;;;;;4.28;2.08;;;45.00;62.10;;;;;;5061136;28;20047;-64
2023/06/16 10:26:55;;;;;;;3.60;2.63;;;45.70;57.60;;;;;;5056737;28;20044;-65
2023/06/16 10:30:03;;;;;;;4.05;2.33;;;43.40;59.90;;;;;;5066176;28;20063;-64
2023/06/16 10:33:19;;;;;;;5.90;2.15;;;43.30;61.40;;;;;;5059531;28;20522;-65
2023/06/16 10:36:33;;;;;;;3.35;2.25;;;43.60;60.40;;;;;;5062621;28;20397;-64
2023/06/16 10:39:45;;;;;;;4.82;2.33;;;44.50;61.90;;;;;;5061714;28;20052;-65
2023/06/16 10:42:55;;;;;;;2.30;2.10;;;44.20;60.90;;;;;;5059060;28;20044;-65
2023/06/16 10:46:15;;;;;;;4.10;2.15;;;44.10;58.70;;;;;;5053913;28;20052;-65
2023/06/16 10:49:26;;;;;;;4.75;2.28;;;43.60;61.30;;;;;;5069900;28;20043;-65
2023/06/16 10:52:30;;;;;;;3.05;2.10;;;44.20;59.00;;;;;;5062216;28;20068;-65
2023/06/16 10:55:35;;;;;;;2.83;2.13;;;44.50;60.60;;;;;;5057296;28;20043;-65
2023/06/16 10:58:39;;;;;;;5.20;2.35;;;44.90;59.80;;;;;;5055559;28;20039;-65
2023/06/16 11:01:46;;;;;;;2.97;2.03;;;44.70;60.40;;;;;;5057421;28;20035;-63
2023/06/16 11:05:13;;;;;;;3.83;2.10;;;44.50;60.40;;;;;;5055548;28;20407;-65
2023/06/16 11:08:17;;;;;;;3.97;2.30;;;43.80;58.80;;;;;;5059252;28;20064;-65
2023/06/16 11:11:21;;;;;;;5.32;2.50;;;43.60;60.40;;;;;;5054647;28;20048;-65
2023/06/16 11:14:26;;;;;;;3.25;2.00;;;43.00;59.70;;;;;;5056935;28;20047;-62
2023/06/16 11:17:31;;;;;;;4.25;2.65;;;42.80;60.70;;;;;;5056556;28;20044;-63
2023/06/16 11:20:36;;;;;;;5.97;2.40;;;42.20;60.90;;;;;;5063867;28;20415;-65
2023/06/16 11:23:43;;;;;;;6.75;2.10;;;42.20;60.90;;;;;;5069318;28;20403;-64
2023/06/16 11:26:47;;;;;;;4.03;2.35;;;42.20;61.30;;;;;;5068244;28;20040;-64
2023/06/16 11:29:53;;;;;;;2.65;2.45;;;41.90;61.00;;;;;;5064706;28;20044;-64
2023/06/16 11:32:57;;;;;;;5.20;2.25;;;41.20;61.10;;;;;;5057499;28;20064;-59
2023/06/16 11:36:14;;;;;;;3.58;2.58;;;40.10;62.10;;;;;;5054005;28;20055;-61
2023/06/16 11:39:18;;;;;;;2.60;2.40;;;39.30;63.40;;;;;;5060928;28;20044;-64
2023/06/16 11:42:21;;;;;;;5.70;2.55;;;39.00;64.80;;;;;;5055793;28;20044;-64
2023/06/16 11:45:31;;;;;;;7.28;2.65;;;39.00;65.10;;;;;;5061537;28;20418;-64
2023/06/16 11:48:37;;;;;;;3.88;2.85;;;39.00;64.40;;;;;;5061603;28;20517;-63
2023/06/16 11:51:41;;;;;;;6.82;2.40;;;39.50;62.90;;;;;;5058751;28;20422;-64
2023/06/16 11:54:46;;;;;;;5.82;2.67;;;40.10;63.50;;;;;;5057246;28;20052;-63
2023/06/16 11:57:50;;;;;;;5.40;3.05;;;39.40;63.90;;;;;;5064659;28;20052;-63
2023/06/16 12:01:00;;;;;;;3.90;2.50;;;39.10;64.40;;;;;;5062173;28;20031;-63
2023/06/16 12:04:04;;;;;;;3.42;2.45;;;38.30;64.50;;;;;;5063304;28;20059;-64
2023/06/16 12:07:10;;;;;;;3.38;2.80;;;37.60;64.90;;;;;;5059082;28;20055;-64
2023/06/16 12:10:15;;;;;;;8.90;3.30;;;37.10;64.70;;;;;;5063096;28;20047;-63
2023/06/16 12:13:19;;;;;;;3.63;2.58;;;37.10;65.70;;;;;;5064409;28;20163;-63
2023/06/16 12:16:25;;;;;;;3.88;2.58;;;37.00;66.30;;;;;;5065881;28;20040;-64
2023/06/16 12:19:29;;;;;;;4.90;2.85;;;37.80;64.00;;;;;;5065706;28;20043;-64
2023/06/16 12:22:38;;;;;;;3.85;2.45;;;37.90;66.00;;;;;;5063109;28;20044;-64
2023/06/16 12:25:43;;;;;;;6.05;2.33;;;38.30;66.70;;;;;;5061234;28;20048;-64
2023/06/16 12:28:52;;;;;;;3.08;2.45;;;38.10;64.40;;;;;;5061636;28;20044;-64
2023/06/16 12:32:00;;;;;;;5.43;2.87;;;37.90;66.70;;;;;;5061380;28;20060;-62
2023/06/16 12:35:04;;;;;;;5.88;3.03;;;38.10;65.60;;;;;;5063607;28;20795;-63
2023/06/16 12:38:08;;;;;;;5.97;3.08;;;37.80;63.40;;;;;;5067866;28;20044;-61
2023/06/16 12:41:17;;;;;;;6.07;2.40;;;37.70;64.00;;;;;;5063679;28;20529;-64
2023/06/16 12:44:21;;;;;;;6.70;2.67;;;37.70;65.40;;;;;;5070395;28;20044;-62
2023/06/16 12:47:26;;;;;;;4.43;2.53;;;37.30;65.20;;;;;;5062902;28;20043;-64
2023/06/16 12:50:30;;;;;;;5.18;2.60;;;37.20;64.90;;;;;;5062132;28;20035;-63
2023/06/16 12:53:42;;;;;;;4.22;2.90;;;37.20;65.10;;;;;;5060620;28;20047;-62
2023/06/16 12:56:46;;;;;;;8.07;2.70;;;37.00;65.20;;;;;;5064427;28;20048;-63
2023/06/16 12:59:51;;;;;;;3.15;2.50;;;36.70;66.70;;;;;;5062657;28;20039;-64
2023/06/16 13:02:56;;;;;;;5.78;3.15;;;36.70;65.90;;;;;;5064456;28;20052;-62
2023/06/16 13:06:00;;;;;;;4.85;3.72;;;35.30;68.70;;;;;;5056711;28;20051;-64
2023/06/16 13:09:04;;;;;;;8.05;3.67;;;34.20;71.50;;;;;;5065394;28;20047;-64
2023/06/16 13:12:08;;;;;;;6.85;3.35;;;33.70;74.00;;;;;;5060381;28;20518;-64
2023/06/16 13:15:12;;;;;;;5.80;3.70;;;33.50;71.70;;;;;;5057273;28;20052;-64
2023/06/16 13:18:16;;;;;;;7.20;4.18;;;33.40;72.10;;;;;;5060551;28;20059;-62
2023/06/16 13:21:20;;;;;;;7.18;4.07;;;33.30;75.90;;;;;;5064603;28;20554;-62
2023/06/16 13:24:24;;;;;;;4.70;3.95;;;32.60;74.60;;;;;;5066977;28;20056;-64
2023/06/16 13:27:28;;;;;;;9.77;3.63;;;32.50;75.70;;;;;;5067670;28;20036;-65
2023/06/16 13:30:32;;;;;;;4.10;3.65;;;32.30;77.50;;;;;;5059389;28;20063;-64
2023/06/16 13:33:41;;;;;;;5.50;3.63;;;32.50;76.80;;;;;;5061568;28;20039;-65
2023/06/16 13:36:45;;;;;;;5.10;4.10;;;32.60;77.80;;;;;;5059721;28;20039;-64
2023/06/16 13:39:49;;;;;;;4.88;3.53;;;32.50;76.80;;;;;;5060619;28;20043;-62
2023/06/16 13:42:53;;;;;;;4.88;3.55;;;32.70;76.30;;;;;;5063400;28;20048;-64
2023/06/16 13:45:58;;;;;;;4.57;3.20;;;32.70;77.80;;;;;;5062702;28;20047;-61
2023/06/16 13:49:02;;;;;;;6.22;3.65;;;32.80;76.50;;;;;;5059758;28;20052;-62
2023/06/16 13:52:07;;;;;;;11.60;10.45;;;32.80;75.90;;;;;;5061439;28;20518;-63
2023/06/16 13:55:11;;;;;;;7.30;3.55;;;32.70;75.80;;;;;;5064931;28;20428;-61
2023/06/16 13:58:15;;;;;;;4.82;3.40;;;32.60;75.20;;;;;;5061051;28;20052;-62
2023/06/16 14:01:19;;;;;;;3.97;3.20;;;32.30;75.20;;;;;;5063218;28;20412;-63
2023/06/16 14:04:23;;;;;;;4.65;3.10;;;32.30;74.80;;;;;;5062967;28;20040;-61
2023/06/16 14:07:27;;;;;;;5.95;3.35;;;32.40;73.90;;;;;;5063435;28;20052;-63
2023/06/16 14:10:31;;;;;;;4.70;3.20;;;32.20;75.40;;;;;;5063171;28;20407;-64
2023/06/16 14:13:35;;;;;;;5.45;3.35;;;32.10;74.90;;;;;;5061424;28;20040;-64
2023/06/16 14:16:39;;;;;;;4.00;3.38;;;32.20;76.00;;;;;;5063663;28;20051;-64
2023/06/16 14:19:43;;;;;;;6.00;3.55;;;32.20;76.40;;;;;;5061045;28;20418;-61
2023/06/16 14:22:47;;;;;;;5.15;3.80;;;32.20;76.70;;;;;;5063516;28;20048;-64
2023/06/16 14:25:51;;;;;;;5.00;3.45;;;32.30;75.00;;;;;;5058336;28;20047;-65
2023/06/16 14:28:55;;;;;;;7.20;3.72;;;31.50;75.70;;;;;;5061667;28;20509;-63
2023/06/16 14:32:00;;;;;;;7.18;3.88;;;31.50;77.50;;;;;;5062353;28;20052;-64
2023/06/16 14:35:05;;;;;;;4.20;3.50;;;31.70;78.30;;;;;;5064971;28;20051;-59
2023/06/16 14:38:09;;;;;;;7.18;4.07;;;31.60;77.00;;;;;;5060598;28;20039;-63
2023/06/16 14:41:13;;;;;;;4.57;3.40;;;30.50;78.30;;;;;;5058109;28;20409;-63
2023/06/16 14:44:17;;;;;;;8.73;3.88;;;30.60;80.00;;;;;;5063619;28;20051;-64
2023/06/16 14:47:21;;;;;;;7.00;3.72;;;30.90;77.50;;;;;;5069635;28;20047;-62
2023/06/16 14:50:25;;;;;;;5.07;3.25;;;31.00;79.00;;;;;;5051573;28;20039;-62
2023/06/16 14:53:29;;;;;;;6.85;3.50;;;31.00;78.60;;;;;;5057613;28;20044;-62
2023/06/16 14:56:33;;;;;;;7.70;3.17;;;31.10;78.50;;;;;;5054597;28;20044;-64
2023/06/16 14:59:37;;;;;;;6.40;3.40;;;31.10;77.70;;;;;;5057278;28;20588;-63
2023/06/16 15:02:41;;;;;;;9.15;3.10;;;30.90;77.80;;;;;;5058362;28;20052;-65
2023/06/16 15:05:45;;;;;;;4.63;3.00;;;30.60;77.60;;;;;;5057440;28;20052;-64
2023/06/16 15:08:51;;;;;;;4.28;3.25;;;30.50;78.30;;;;;;5053455;28;20083;-61
2023/06/16 15:11:55;;;;;;;7.28;3.60;;;30.10;78.40;;;;;;5054668;28;20419;-64
2023/06/16 15:14:59;;;;;;;5.88;3.75;;;27.80;77.40;;;;;;5064846;28;20047;-65
2023/06/16 15:18:03;;;;;;;8.60;3.80;;;30.10;79.80;;;;;;5059049;28;20056;-62
2023/06/16 15:21:10;;;;;;;4.78;3.65;;;29.80;81.30;;;;;;5060632;28;20055;-58
2023/06/16 15:24:13;;;;;;;5.35;3.95;;;29.50;83.10;;;;;;5066768;28;20059;-65
2023/06/16 15:27:18;;;;;;;6.30;4.13;;;29.50;84.80;;;;;;5064934;28;20040;-64
2023/06/16 15:30:22;;;;;;;7.93;4.53;;;29.50;86.50;;;;;;5059344;28;20064;-65
2023/06/16 15:33:32;;;;;;;7.60;4.32;;;29.40;87.20;;;;;;5059795;28;20032;-65
2023/06/16 15:36:36;;;;;;;6.80;4.33;;;29.40;86.50;;;;;;5049015;28;20550;-60
2023/06/16 15:39:40;;;;;;;7.85;4.55;;;29.10;86.50;;;;;;5049579;28;20518;-64
2023/06/16 15:42:47;;;;;;;7.60;4.70;;;29.10;85.10;;;;;;5049443;28;20063;-62
2023/06/16 15:45:51;;;;;;;6.43;4.57;;;29.00;85.90;;;;;;5049712;28;20060;-63
2023/06/16 15:48:55;;;;;;;12.70;4.45;;;28.60;86.60;;;;;;5049798;28;20051;-64
2023/06/16 15:52:01;;;;;;;6.53;4.35;;;28.40;87.00;;;;;;5049278;28;20513;-63
2023/06/16 15:55:05;;;;;;;6.50;4.80;;;28.50;87.40;;;;;;5049396;28;20048;-64
2023/06/16 15:58:09;;;;;;;8.02;4.30;;;28.30;87.10;;;;;;5049161;28;20052;-64
2023/06/16 16:01:13;;;;;;;7.00;4.40;;;28.20;87.50;;;;;;5049279;28;20043;-63